Time;durP1;ratioP1;P1;durP2;ratioP2;P2;SDS_P1;SDS_P2;PMS_P1;PMS_P2;Temp;Humidity;BMP_temperature;BMP_pressure;BME280_temperature;BME280_humidity;BME280_pressure;Samples;Min_cycle;Max_cycle;Signal;HPM_P1;HPM_P2
2022/03/18 00:00:21;;;;;;;1.33;1.23;;;4.90;99.90;;;;;;5051201;28;20184;-77
2022/03/18 00:02:47;;;;;;;1.27;1.27;;;5.00;99.90;;;;;;5052185;28;20230;-77
2022/03/18 00:05:13;;;;;;;3.70;2.50;;;5.10;99.90;;;;;;5052112;28;20227;-77
2022/03/18 00:07:40;;;;;;;0.57;0.57;;;5.10;99.90;;;;;;5052458;28;20597;-77
2022/03/18 00:10:07;;;;;;;1.30;1.20;;;5.10;99.90;;;;;;5052319;28;20667;-77
2022/03/18 00:12:33;;;;;;;0.73;0.73;;;5.00;99.90;;;;;;5051815;28;20239;-77
2022/03/18 00:14:59;;;;;;;0.10;0.10;;;4.90;99.90;;;;;;5051047;28;20177;-77
2022/03/18 00:17:25;;;;;;;0.40;0.40;;;4.80;99.90;;;;;;5052294;28;20173;-79
2022/03/18 00:19:51;;;;;;;1.23;1.23;;;4.80;99.90;;;;;;5052090;28;20176;-77
2022/03/18 00:22:17;;;;;;;1.07;1.07;;;4.80;99.90;;;;;;5051899;28;20193;-77
2022/03/18 00:24:42;;;;;;;0.77;0.77;;;4.80;99.90;;;;;;5051928;28;20679;-78
2022/03/18 00:27:08;;;;;;;2.03;1.77;;;4.80;99.90;;;;;;5050592;28;20181;-78
2022/03/18 00:29:35;;;;;;;1.70;1.47;;;4.80;99.90;;;;;;5052350;28;20642;-77
2022/03/18 00:32:01;;;;;;;1.33;0.97;;;4.70;99.90;;;;;;5050275;28;20181;-76
2022/03/18 00:34:26;;;;;;;1.53;1.47;;;4.70;99.90;;;;;;5052141;28;20165;-77
2022/03/18 00:36:54;;;;;;;1.70;1.23;;;4.60;99.90;;;;;;5055798;28;20176;-77
2022/03/18 00:39:20;;;;;;;1.63;1.53;;;4.60;99.90;;;;;;5072025;28;20176;-78
2022/03/18 00:41:46;;;;;;;10.43;1.40;;;4.60;99.90;;;;;;5069929;28;20291;-76
2022/03/18 00:44:11;;;;;;;2.37;1.80;;;4.50;99.90;;;;;;5070417;28;20200;-77
2022/03/18 00:46:37;;;;;;;0.63;0.63;;;4.50;99.90;;;;;;5071485;28;20203;-78
2022/03/18 00:52:05;;;;;;;3.50;1.33;;;4.40;99.90;;;;;;5071777;28;20187;-78
2022/03/18 00:54:43;;;;;;;0.67;0.67;;;4.40;99.90;;;;;;5071538;28;20176;-78
2022/03/18 00:57:09;;;;;;;1.00;1.00;;;4.40;99.90;;;;;;5070180;28;20183;-77
2022/03/18 00:59:35;;;;;;;4.23;2.93;;;4.40;99.90;;;;;;5071229;28;20165;-77
2022/03/18 01:02:02;;;;;;;0.67;0.67;;;4.30;99.90;;;;;;5061320;28;20219;-77
2022/03/18 01:04:28;;;;;;;1.03;1.03;;;4.40;99.90;;;;;;5049894;28;20199;-77
2022/03/18 01:06:55;;;;;;;1.40;1.23;;;4.40;99.90;;;;;;5051172;28;20169;-78
2022/03/18 01:09:22;;;;;;;2.73;2.63;;;4.30;99.90;;;;;;5050041;28;20181;-77
2022/03/18 01:11:49;;;;;;;1.13;1.13;;;4.30;99.90;;;;;;5049521;28;20173;-77
2022/03/18 01:14:16;;;;;;;1.93;1.83;;;4.30;99.90;;;;;;5049964;28;20196;-77
2022/03/18 01:16:41;;;;;;;1.27;1.17;;;4.20;99.90;;;;;;5051957;28;20177;-77
2022/03/18 01:19:08;;;;;;;0.80;0.80;;;4.20;99.90;;;;;;5051070;28;20188;-77
2022/03/18 01:21:34;;;;;;;2.07;1.87;;;4.10;99.90;;;;;;5050999;28;20230;-77
2022/03/18 01:24:01;;;;;;;1.50;1.27;;;4.20;99.90;;;;;;5051031;28;20614;-77
2022/03/18 01:26:27;;;;;;;0.40;0.40;;;4.20;99.90;;;;;;5050912;28;20230;-77
2022/03/18 01:28:53;;;;;;;32.33;4.83;;;4.30;99.90;;;;;;5051328;28;20177;-76
2022/03/18 01:31:21;;;;;;;1.17;1.17;;;4.30;99.90;;;;;;5050859;28;20662;-78
2022/03/18 01:33:46;;;;;;;2.00;1.93;;;4.40;99.90;;;;;;5050392;28;20197;-78
2022/03/18 01:36:13;;;;;;;1.27;1.27;;;4.40;99.90;;;;;;5051872;28;20189;-79
2022/03/18 01:38:38;;;;;;;10.53;3.13;;;4.40;99.90;;;;;;5049953;28;20593;-75
2022/03/18 01:41:04;;;;;;;1.43;1.43;;;4.40;99.90;;;;;;5050753;28;20173;-76
2022/03/18 01:43:37;;;;;;;2.00;1.67;;;4.40;99.90;;;;;;5067854;28;20208;-75
2022/03/18 01:46:02;;;;;;;1.53;1.43;;;4.50;99.90;;;;;;5070889;28;20645;-76
2022/03/18 01:48:28;;;;;;;6.33;3.10;;;4.50;99.90;;;;;;5071104;28;20204;-75
2022/03/18 01:50:53;;;;;;;2.63;1.77;;;4.50;99.90;;;;;;5069906;28;20180;-76
2022/03/18 01:53:19;;;;;;;2.53;1.30;;;4.40;99.90;;;;;;5070464;28;20199;-75
2022/03/18 01:55:44;;;;;;;19.83;2.73;;;4.50;99.90;;;;;;5069336;28;20667;-75
2022/03/18 01:58:10;;;;;;;2.73;2.63;;;4.50;99.90;;;;;;5070791;28;20647;-76
2022/03/18 02:00:35;;;;;;;3.13;2.57;;;4.40;99.90;;;;;;5073672;28;20172;-76
2022/03/18 02:03:01;;;;;;;1.80;1.70;;;4.40;99.90;;;;;;5074033;28;20667;-76
2022/03/18 02:05:27;;;;;;;1.03;1.03;;;4.40;99.90;;;;;;5074448;28;20200;-76
2022/03/18 02:07:52;;;;;;;0.93;0.93;;;4.40;99.90;;;;;;5074100;28;20642;-76
2022/03/18 02:10:18;;;;;;;0.87;0.87;;;4.40;99.90;;;;;;5072725;28;20301;-76
2022/03/18 02:12:43;;;;;;;0.77;0.77;;;4.40;99.90;;;;;;5073757;28;20679;-77
2022/03/18 02:15:09;;;;;;;0.70;0.70;;;4.40;99.90;;;;;;5074247;28;20185;-77
2022/03/18 02:17:37;;;;;;;9.13;1.40;;;4.40;99.90;;;;;;5073999;28;20177;-78
2022/03/18 02:20:03;;;;;;;4.53;4.10;;;4.30;99.90;;;;;;5074046;28;20271;-77
2022/03/18 02:24:57;;;;;;;4.77;2.73;;;4.20;99.90;;;;;;5050747;28;20278;-75
2022/03/18 02:27:23;;;;;;;0.60;0.60;;;4.10;99.90;;;;;;5052537;28;20224;-74
2022/03/18 02:29:49;;;;;;;1.07;1.07;;;4.10;99.90;;;;;;5052591;28;20220;-74
2022/03/18 02:32:14;;;;;;;2.07;1.90;;;4.10;99.90;;;;;;5053428;28;20220;-74
2022/03/18 02:34:41;;;;;;;0.77;0.77;;;4.10;99.90;;;;;;5052623;28;20193;-74
2022/03/18 02:37:07;;;;;;;10.30;2.27;;;4.00;99.90;;;;;;5052458;28;20177;-74
2022/03/18 02:39:33;;;;;;;0.23;0.23;;;4.00;99.90;;;;;;5053595;28;20260;-74
2022/03/18 02:42:00;;;;;;;2.43;1.80;;;4.00;99.90;;;;;;5053251;28;20619;-73
2022/03/18 02:44:26;;;;;;;1.17;1.17;;;4.00;99.90;;;;;;5053903;28;20294;-73
2022/03/18 02:46:51;;;;;;;1.10;1.10;;;4.00;99.90;;;;;;5052085;28;20212;-74
2022/03/18 02:49:17;;;;;;;0.70;0.70;;;4.10;99.90;;;;;;5052140;28;20173;-74
2022/03/18 02:51:43;;;;;;;0.83;0.83;;;4.00;99.90;;;;;;5052976;28;20170;-74
2022/03/18 02:54:09;;;;;;;2.20;2.00;;;4.00;99.90;;;;;;5051876;28;20196;-74
2022/03/18 02:56:36;;;;;;;1.97;1.87;;;4.00;99.90;;;;;;5053219;28;20184;-74
2022/03/18 02:59:03;;;;;;;1.13;0.77;;;4.00;99.90;;;;;;5053298;28;20586;-74
2022/03/18 03:01:30;;;;;;;0.30;0.30;;;3.90;99.90;;;;;;5053120;28;20176;-72
2022/03/18 03:03:57;;;;;;;1.40;1.33;;;3.90;99.90;;;;;;5053131;28;20564;-74
2022/03/18 03:09:07;;;;;;;2.43;1.10;;;3.90;99.90;;;;;;5053539;28;20184;-73
2022/03/18 03:11:34;;;;;;;0.83;0.83;;;4.00;99.90;;;;;;5051652;28;20177;-73
2022/03/18 03:14:00;;;;;;;0.43;0.43;;;4.00;99.90;;;;;;5051791;28;20211;-74
2022/03/18 03:16:26;;;;;;;0.67;0.53;;;3.90;99.90;;;;;;5052938;28;20259;-74
2022/03/18 03:18:52;;;;;;;5.80;3.83;;;3.80;99.90;;;;;;5052651;28;20177;-73
2022/03/18 03:21:17;;;;;;;2.07;1.13;;;3.80;99.90;;;;;;5052664;28;20234;-75
2022/03/18 03:23:43;;;;;;;0.37;0.37;;;3.80;99.90;;;;;;5062657;28;20272;-75
2022/03/18 03:26:08;;;;;;;1.07;1.07;;;3.70;99.90;;;;;;5080450;28;20272;-74
2022/03/18 03:28:34;;;;;;;3.83;2.23;;;3.70;99.90;;;;;;5092921;28;20536;-74
2022/03/18 03:31:00;;;;;;;8.97;1.77;;;3.70;99.90;;;;;;5091780;28;20191;-74
2022/03/18 03:33:26;;;;;;;1.37;1.27;;;3.70;99.90;;;;;;5087460;28;20651;-73
2022/03/18 03:35:52;;;;;;;1.03;1.03;;;3.60;99.90;;;;;;5092737;28;20651;-74
2022/03/18 03:38:19;;;;;;;1.30;0.83;;;3.70;99.90;;;;;;5092652;28;20183;-74
2022/03/18 03:40:44;;;;;;;0.30;0.30;;;3.70;99.90;;;;;;5092978;28;20183;-74
2022/03/18 03:43:10;;;;;;;1.83;1.73;;;3.60;99.90;;;;;;5091109;28;20564;-75
2022/03/18 03:45:36;;;;;;;1.27;1.17;;;3.60;99.90;;;;;;5091258;28;20658;-75
2022/03/18 03:48:03;;;;;;;1.33;1.23;;;3.50;99.90;;;;;;5091014;28;20204;-75
2022/03/18 03:50:28;;;;;;;0.90;0.90;;;3.50;99.90;;;;;;5092571;28;20179;-74
2022/03/18 03:52:54;;;;;;;1.33;1.33;;;3.40;99.90;;;;;;5091978;28;20671;-74
2022/03/18 03:55:20;;;;;;;0.80;0.80;;;3.40;99.90;;;;;;5092472;28;20206;-73
2022/03/18 03:57:45;;;;;;;0.17;0.17;;;3.40;99.90;;;;;;5092427;28;20189;-74
2022/03/18 04:00:12;;;;;;;5.63;2.93;;;3.40;99.90;;;;;;5092305;28;20198;-74
2022/03/18 04:02:38;;;;;;;0.27;0.27;;;3.40;99.90;;;;;;5090342;28;20233;-74
2022/03/18 04:05:08;;;;;;;0.30;0.30;;;3.40;99.90;;;;;;5092161;28;20210;-74
2022/03/18 04:07:35;;;;;;;2.63;1.37;;;3.40;99.90;;;;;;5092054;28;20178;-74
2022/03/18 04:10:02;;;;;;;1.30;1.23;;;3.40;99.90;;;;;;5092244;28;20743;-74
2022/03/18 04:12:27;;;;;;;0.10;0.10;;;3.40;99.90;;;;;;5091707;28;20236;-74
2022/03/18 04:14:53;;;;;;;1.43;1.33;;;3.40;99.90;;;;;;5092230;28;20204;-74
2022/03/18 04:17:18;;;;;;;0.20;0.20;;;3.40;99.90;;;;;;5091855;28;20184;-73
2022/03/18 04:19:44;;;;;;;1.80;1.70;;;3.40;99.90;;;;;;5091858;28;20178;-74
2022/03/18 04:22:10;;;;;;;4.40;1.27;;;3.40;99.90;;;;;;5090051;28;20185;-75
2022/03/18 04:24:36;;;;;;;0.77;0.77;;;3.40;99.90;;;;;;5082066;28;20219;-74
2022/03/18 04:27:01;;;;;;;3.43;2.57;;;3.40;99.90;;;;;;5086965;28;20186;-75
2022/03/18 04:29:27;;;;;;;0.40;0.40;;;3.40;99.90;;;;;;5091920;28;20179;-75
2022/03/18 04:31:52;;;;;;;0.53;0.53;;;3.40;99.90;;;;;;5085473;28;20266;-75
2022/03/18 04:34:18;;;;;;;0.63;0.63;;;3.30;99.90;;;;;;5090449;28;20673;-75
2022/03/18 04:36:45;;;;;;;0.93;0.93;;;3.30;99.90;;;;;;5091871;28;20178;-75
2022/03/18 04:39:10;;;;;;;1.60;1.50;;;3.20;99.90;;;;;;5091749;28;20648;-74
2022/03/18 04:41:36;;;;;;;2.90;1.70;;;3.20;99.90;;;;;;5090094;28;20178;-74
2022/03/18 04:44:02;;;;;;;0.50;0.50;;;3.20;99.90;;;;;;5090277;28;20202;-74
2022/03/18 04:46:31;;;;;;;0.70;0.70;;;3.20;99.90;;;;;;5090024;28;20285;-73
2022/03/18 04:48:58;;;;;;;2.30;2.10;;;3.10;99.90;;;;;;5091849;28;20625;-74
2022/03/18 04:51:24;;;;;;;1.83;1.73;;;3.10;99.90;;;;;;5091401;28;20235;-74
2022/03/18 04:53:49;;;;;;;1.70;1.60;;;3.00;99.90;;;;;;5091571;28;20201;-74
2022/03/18 04:58:59;;;;;;;1.27;1.27;;;3.00;99.90;;;;;;5091370;28;20546;-74
2022/03/18 05:01:26;;;;;;;1.07;0.67;;;3.00;99.90;;;;;;5091127;28;20186;-73
2022/03/18 05:03:52;;;;;;;0.83;0.83;;;2.90;99.90;;;;;;5090027;28;20233;-73
2022/03/18 05:06:18;;;;;;;0.27;0.27;;;2.80;99.90;;;;;;5091768;28;20233;-73
2022/03/18 05:08:44;;;;;;;0.63;0.63;;;2.70;99.90;;;;;;5091967;28;20243;-74
2022/03/18 05:11:09;;;;;;;0.80;0.80;;;2.70;99.90;;;;;;5091242;28;20184;-73
2022/03/18 05:13:35;;;;;;;0.53;0.53;;;2.60;99.90;;;;;;5089608;28;20570;-74
2022/03/18 05:16:00;;;;;;;0.70;0.70;;;2.60;99.90;;;;;;5090608;28;20190;-73
2022/03/18 05:18:26;;;;;;;11.13;5.00;;;2.50;99.90;;;;;;5091172;28;20293;-73
2022/03/18 05:20:52;;;;;;;3.30;1.37;;;2.50;99.90;;;;;;5091817;28;20181;-73
2022/03/18 05:23:17;;;;;;;0.50;0.50;;;2.40;99.90;;;;;;5090918;28;20213;-73
2022/03/18 05:25:43;;;;;;;0.73;0.70;;;2.40;99.90;;;;;;5078152;28;20236;-73
2022/03/18 05:28:09;;;;;;;0.80;0.80;;;2.40;99.90;;;;;;5090931;28;20184;-73
2022/03/18 05:30:35;;;;;;;1.07;1.07;;;2.40;99.90;;;;;;5091125;28;20174;-73
2022/03/18 05:33:01;;;;;;;0.80;0.80;;;2.20;99.90;;;;;;5084971;28;20643;-73
2022/03/18 05:35:26;;;;;;;2.00;1.10;;;2.20;99.90;;;;;;5094351;28;20541;-75
2022/03/18 05:37:52;;;;;;;0.10;0.10;;;2.20;99.90;;;;;;5093694;28;20189;-74
2022/03/18 05:40:18;;;;;;;0.40;0.40;;;2.20;99.90;;;;;;5095043;28;20649;-74
2022/03/18 05:42:46;;;;;;;0.10;0.10;;;2.20;99.90;;;;;;5094491;28;20596;-74
2022/03/18 05:45:12;;;;;;;1.10;1.00;;;2.20;99.90;;;;;;5095083;28;20200;-75
2022/03/18 05:47:38;;;;;;;0.57;0.57;;;2.10;99.90;;;;;;5094817;28;20186;-74
2022/03/18 05:50:06;;;;;;;1.33;1.33;;;2.10;99.90;;;;;;5093467;28;20647;-74
2022/03/18 05:52:32;;;;;;;0.60;0.60;;;2.10;99.90;;;;;;5093004;28;20185;-73
2022/03/18 05:54:58;;;;;;;0.40;0.30;;;2.00;99.90;;;;;;5093425;28;20186;-74
2022/03/18 05:57:26;;;;;;;0.20;0.20;;;2.10;99.90;;;;;;5093250;28;20279;-74
2022/03/18 05:59:54;;;;;;;0.00;0.00;;;2.00;99.90;;;;;;5094567;28;20178;-73
2022/03/18 06:02:19;;;;;;;2.43;2.23;;;2.00;99.90;;;;;;5094280;28;20182;-73
2022/03/18 06:04:46;;;;;;;1.33;1.03;;;1.90;99.90;;;;;;5094319;28;20200;-74
2022/03/18 06:07:12;;;;;;;1.27;1.00;;;1.80;99.90;;;;;;5094358;28;20169;-74
2022/03/18 06:12:22;;;;;;;0.90;0.90;;;1.90;99.90;;;;;;5093894;28;20176;-74
2022/03/18 06:14:47;;;;;;;0.30;0.30;;;1.80;99.90;;;;;;5094592;28;20195;-73
2022/03/18 06:17:13;;;;;;;1.40;1.40;;;1.80;99.90;;;;;;5093410;28;20171;-73
2022/03/18 06:19:38;;;;;;;0.37;0.37;;;1.80;99.90;;;;;;5094175;28;20169;-73
2022/03/18 06:22:04;;;;;;;0.70;0.70;;;1.90;99.90;;;;;;5092577;28;20203;-74
2022/03/18 06:24:30;;;;;;;0.43;0.43;;;2.00;99.90;;;;;;5085124;28;20296;-74
2022/03/18 06:26:57;;;;;;;0.30;0.30;;;2.10;99.90;;;;;;5089654;28;20212;-73
2022/03/18 06:29:22;;;;;;;0.10;0.10;;;2.30;99.90;;;;;;5093675;28;20231;-74
2022/03/18 06:31:49;;;;;;;0.40;0.40;;;2.30;99.90;;;;;;5087656;28;20175;-75
2022/03/18 06:34:15;;;;;;;2.43;0.87;;;2.30;99.90;;;;;;5093911;28;20198;-75
2022/03/18 06:36:41;;;;;;;3.17;2.97;;;2.40;99.90;;;;;;5093639;28;20188;-74
2022/03/18 06:39:08;;;;;;;0.67;0.67;;;2.30;99.90;;;;;;5094072;28;20671;-73
2022/03/18 06:41:34;;;;;;;0.10;0.10;;;2.20;99.90;;;;;;5092860;28;20193;-73
2022/03/18 06:43:59;;;;;;;0.53;0.53;;;2.10;99.90;;;;;;5093792;28;20205;-72
2022/03/18 06:46:25;;;;;;;0.53;0.53;;;2.10;99.90;;;;;;5093493;28;20202;-73
2022/03/18 06:48:52;;;;;;;1.53;1.43;;;2.00;99.90;;;;;;5093638;28;20185;-73
2022/03/18 06:51:18;;;;;;;0.17;0.17;;;2.00;99.90;;;;;;5093457;28;20177;-75
2022/03/18 06:53:43;;;;;;;0.87;0.77;;;2.10;99.90;;;;;;5093573;28;20199;-74
2022/03/18 06:56:09;;;;;;;0.10;0.10;;;2.10;99.90;;;;;;5093835;28;20260;-75
2022/03/18 06:58:35;;;;;;;1.97;1.17;;;2.20;99.90;;;;;;5093744;28;20182;-76
2022/03/18 07:01:01;;;;;;;0.60;0.60;;;2.40;99.90;;;;;;5092219;28;20209;-75
2022/03/18 07:03:26;;;;;;;0.33;0.33;;;2.80;99.90;;;;;;5092259;28;20692;-75
2022/03/18 07:05:52;;;;;;;1.47;1.37;;;3.20;99.90;;;;;;5091694;28;20218;-76
2022/03/18 07:08:18;;;;;;;0.50;0.50;;;3.50;99.90;;;;;;5093298;28;20179;-76
2022/03/18 07:10:44;;;;;;;0.57;0.57;;;3.90;99.90;;;;;;5091941;28;20696;-75
2022/03/18 07:13:09;;;;;;;3.00;1.13;;;4.00;99.90;;;;;;5091576;28;20223;-76
2022/03/18 07:15:35;;;;;;;0.53;0.53;;;4.10;99.90;;;;;;5092937;28;20182;-76
2022/03/18 07:18:03;;;;;;;0.60;0.60;;;4.30;99.90;;;;;;5093040;28;20569;-76
2022/03/18 07:20:33;;;;;;;0.27;0.27;;;4.40;99.90;;;;;;5080198;28;20180;-76
2022/03/18 07:23:01;;;;;;;0.97;0.77;;;4.40;99.90;;;;;;5077940;28;20576;-76
2022/03/18 07:25:27;;;;;;;4.90;2.90;;;4.60;99.90;;;;;;5074004;28;20527;-77
2022/03/18 07:27:53;;;;;;;1.30;1.30;;;4.70;99.90;;;;;;5072727;28;20173;-75
2022/03/18 07:30:19;;;;;;;0.23;0.23;;;4.80;99.90;;;;;;5089476;28;20539;-74
2022/03/18 07:32:44;;;;;;;2.43;0.83;;;4.90;99.90;;;;;;5086314;28;20707;-75
2022/03/18 07:35:10;;;;;;;0.20;0.20;;;4.90;99.90;;;;;;5092574;28;20187;-76
2022/03/18 07:37:36;;;;;;;5.20;1.80;;;5.00;99.90;;;;;;5084255;28;20176;-76
2022/03/18 07:40:03;;;;;;;1.37;1.33;;;5.10;99.90;;;;;;5092627;28;20176;-75
2022/03/18 07:42:40;;;;;;;1.33;1.10;;;5.20;99.90;;;;;;5091319;28;20179;-75
2022/03/18 07:45:06;;;;;;;3.07;2.77;;;5.30;99.90;;;;;;5092578;28;20195;-75
2022/03/18 07:47:31;;;;;;;0.70;0.60;;;5.40;99.90;;;;;;5087937;28;20176;-75
2022/03/18 07:49:57;;;;;;;1.03;1.03;;;5.40;99.90;;;;;;5082120;28;20179;-76
2022/03/18 07:52:22;;;;;;;1.00;0.70;;;5.50;99.90;;;;;;5092308;28;20176;-76
2022/03/18 07:54:48;;;;;;;1.67;1.43;;;5.50;99.90;;;;;;5091169;28;20678;-76
2022/03/18 07:57:13;;;;;;;0.70;0.70;;;5.70;99.90;;;;;;5092215;28;20187;-76
2022/03/18 07:59:39;;;;;;;0.97;0.97;;;5.70;99.90;;;;;;5082965;28;20261;-73
2022/03/18 08:02:05;;;;;;;2.17;1.50;;;5.90;99.90;;;;;;5084556;28;20187;-72
2022/03/18 08:04:30;;;;;;;1.27;1.23;;;6.40;99.90;;;;;;5082082;28;20200;-74
2022/03/18 08:06:56;;;;;;;1.23;0.57;;;6.70;99.90;;;;;;5089870;28;20282;-74
2022/03/18 08:09:21;;;;;;;1.63;1.53;;;6.90;99.90;;;;;;5090969;28;20198;-74
2022/03/18 08:11:47;;;;;;;3.03;2.27;;;7.10;99.90;;;;;;5092075;28;20175;-73
2022/03/18 08:14:12;;;;;;;11.37;2.70;;;7.20;99.90;;;;;;5090833;28;20638;-74
2022/03/18 08:16:38;;;;;;;2.80;1.97;;;7.40;99.90;;;;;;5092174;28;20188;-74
2022/03/18 08:19:04;;;;;;;5.30;3.20;;;7.50;99.90;;;;;;5092360;28;20211;-74
2022/03/18 08:21:32;;;;;;;1.33;1.23;;;7.50;99.90;;;;;;5091668;28;20203;-74
2022/03/18 08:23:58;;;;;;;1.23;1.13;;;7.50;99.90;;;;;;5087650;22;20225;-77
2022/03/18 08:26:23;;;;;;;2.03;1.93;;;7.60;99.90;;;;;;5031601;28;20564;-77
2022/03/18 08:28:49;;;;;;;0.53;0.53;;;7.70;99.90;;;;;;5031311;28;20182;-77
2022/03/18 08:31:15;;;;;;;0.40;0.40;;;7.80;99.90;;;;;;5032020;28;20693;-78
2022/03/18 08:33:40;;;;;;;0.87;0.87;;;8.10;99.90;;;;;;5007660;28;20205;-77
2022/03/18 08:36:06;;;;;;;3.07;2.30;;;8.30;99.90;;;;;;5011701;28;20557;-77
2022/03/18 08:38:32;;;;;;;0.73;0.73;;;8.40;99.90;;;;;;5011717;28;20178;-77
2022/03/18 08:40:57;;;;;;;3.53;2.63;;;8.50;99.90;;;;;;5011703;28;20175;-77
2022/03/18 08:43:23;;;;;;;0.40;0.40;;;8.60;99.90;;;;;;4993755;28;20396;-77
2022/03/18 08:45:49;;;;;;;0.80;0.80;;;8.70;99.90;;;;;;5011761;28;20292;-78
2022/03/18 08:48:14;;;;;;;1.20;1.20;;;8.80;99.90;;;;;;5011424;28;20265;-77
2022/03/18 08:50:40;;;;;;;0.60;0.60;;;9.00;99.90;;;;;;5011899;28;20561;-77
2022/03/18 08:53:09;;;;;;;1.50;1.40;;;9.00;99.90;;;;;;4993708;28;20178;-77
2022/03/18 08:55:35;;;;;;;0.63;0.63;;;9.10;99.90;;;;;;5012003;28;20178;-76
2022/03/18 08:58:01;;;;;;;1.50;1.00;;;9.30;99.90;;;;;;5011647;28;20175;-77
2022/03/18 09:00:29;;;;;;;6.73;4.20;;;9.30;99.90;;;;;;5011471;28;20261;-78
2022/03/18 09:02:54;;;;;;;0.50;0.50;;;9.50;99.90;;;;;;5010923;28;20205;-77
2022/03/18 09:05:20;;;;;;;2.03;1.07;;;9.60;99.90;;;;;;5011606;28;20245;-76
2022/03/18 09:07:46;;;;;;;0.53;0.53;;;9.80;99.90;;;;;;5011492;28;20206;-77
2022/03/18 09:10:12;;;;;;;23.57;2.00;;;9.60;99.90;;;;;;5014297;28;20221;-78
2022/03/18 09:12:55;;;;;;;1.60;1.50;;;9.70;99.90;;;;;;5015059;28;20236;-78
2022/03/18 09:15:21;;;;;;;2.93;1.73;;;9.90;99.90;;;;;;5015368;28;20705;-77
2022/03/18 09:17:47;;;;;;;0.47;0.47;;;9.90;99.90;;;;;;4999456;28;20248;-79
2022/03/18 09:20:13;;;;;;;1.07;0.97;;;9.80;99.90;;;;;;4999862;28;20189;-78
2022/03/18 09:22:39;;;;;;;0.63;0.63;;;9.60;99.90;;;;;;5015102;28;20172;-77
2022/03/18 09:25:05;;;;;;;1.60;0.97;;;9.60;99.90;;;;;;5025748;28;20237;-77
2022/03/18 09:27:31;;;;;;;2.00;1.40;;;9.80;99.90;;;;;;5004561;28;20198;-78
2022/03/18 09:29:59;;;;;;;0.40;0.40;;;9.80;99.90;;;;;;5016726;28;20205;-77
2022/03/18 09:32:26;;;;;;;2.90;1.38;;;9.90;99.90;;;;;;5016079;28;20431;-77
2022/03/18 09:34:51;;;;;;;1.07;0.87;;;10.00;99.90;;;;;;5016358;28;20251;-78
2022/03/18 09:37:17;;;;;;;1.00;0.93;;;10.30;99.90;;;;;;5016787;28;20234;-78
2022/03/18 09:39:42;;;;;;;0.30;0.30;;;10.20;99.90;;;;;;5017735;28;20178;-78
2022/03/18 09:42:08;;;;;;;5.40;1.88;;;10.30;99.90;;;;;;4998155;28;20409;-78
2022/03/18 09:44:36;;;;;;;4.67;1.03;;;10.40;99.90;;;;;;5020985;28;20204;-78
2022/03/18 09:47:03;;;;;;;2.37;2.17;;;10.80;99.90;;;;;;5000090;28;20214;-77
2022/03/18 09:49:29;;;;;;;7.20;1.43;;;11.00;99.90;;;;;;5016658;28;20172;-78
2022/03/18 09:51:55;;;;;;;0.50;0.50;;;10.80;99.90;;;;;;5017617;28;20174;-77
2022/03/18 09:54:21;;;;;;;0.60;0.60;;;10.80;99.90;;;;;;5018454;28;20632;-78
2022/03/18 09:56:48;;;;;;;0.90;0.90;;;10.80;99.90;;;;;;5022933;28;20250;-78
2022/03/18 09:59:15;;;;;;;1.77;1.67;;;10.50;99.90;;;;;;5014973;28;20213;-78
2022/03/18 10:01:40;;;;;;;3.90;1.47;;;10.10;99.90;;;;;;5015858;28;20193;-77
2022/03/18 10:04:10;;;;;;;0.33;0.33;;;9.90;99.90;;;;;;5015723;28;20202;-78
2022/03/18 10:06:37;;;;;;;0.30;0.30;;;10.10;99.90;;;;;;5015271;28;20724;-78
2022/03/18 10:09:04;;;;;;;0.23;0.23;;;10.60;99.90;;;;;;5015957;28;20234;-78
2022/03/18 10:11:32;;;;;;;0.37;0.37;;;10.70;99.90;;;;;;5016441;28;20178;-79
2022/03/18 10:14:01;;;;;;;0.43;0.37;;;10.50;99.90;;;;;;5016134;28;20252;-77
2022/03/18 10:16:37;;;;;;;0.40;0.40;;;10.80;99.90;;;;;;5001447;28;20188;-77
2022/03/18 10:19:15;;;;;;;0.50;0.50;;;10.70;99.90;;;;;;5000054;28;20178;-78
2022/03/18 10:21:55;;;;;;;1.20;1.13;;;11.10;99.90;;;;;;4997174;28;20174;-79
2022/03/18 10:24:27;;;;;;;0.50;0.50;;;11.40;99.90;;;;;;5026695;28;20311;-77
2022/03/18 10:27:18;;;;;;;0.63;0.63;;;11.10;99.90;;;;;;5025293;28;20660;-78
2022/03/18 10:29:44;;;;;;;0.40;0.40;;;11.30;99.90;;;;;;4994832;28;20288;-78
2022/03/18 10:32:11;;;;;;;0.20;0.20;;;11.30;99.90;;;;;;5005649;28;20277;-78
2022/03/18 10:37:23;;;;;;;0.80;0.77;;;11.90;99.90;;;;;;5016463;28;20208;-78
2022/03/18 10:39:50;;;;;;;1.63;1.53;;;12.20;99.90;;;;;;5015679;28;21070;-78
2022/03/18 10:42:17;;;;;;;0.53;0.53;;;12.20;99.90;;;;;;5015178;28;20205;-78
2022/03/18 10:44:59;;;;;;;1.07;1.07;;;12.60;99.90;;;;;;5015493;28;20650;-78
2022/03/18 10:47:45;;;;;;;2.70;1.20;;;12.80;99.90;;;;;;4997946;28;20527;-77
2022/03/18 10:50:14;;;;;;;0.90;0.90;;;13.40;99.90;;;;;;5015595;28;20175;-77
2022/03/18 10:52:48;;;;;;;1.57;1.47;;;13.10;99.90;;;;;;5015016;28;20252;-78
2022/03/18 10:55:19;;;;;;;0.63;0.63;;;13.20;99.90;;;;;;5014886;28;20296;-78
2022/03/18 10:58:21;;;;;;;0.53;0.53;;;13.90;99.90;;;;;;5014944;28;20228;-78
2022/03/18 11:00:51;;;;;;;0.27;0.27;;;14.10;99.90;;;;;;4954568;29;20535;-78
2022/03/18 11:03:17;;;;;;;2.17;1.13;;;14.20;99.90;;;;;;4987645;28;20197;-78
2022/03/18 11:05:51;;;;;;;0.83;0.60;;;15.10;99.70;;;;;;5015095;28;20298;-79
2022/03/18 11:08:24;;;;;;;0.50;0.50;;;14.90;99.90;;;;;;4997488;28;20193;-77
2022/03/18 11:14:00;;;;;;;3.03;0.50;;;15.10;96.90;;;;;;5014770;28;20278;-76
2022/03/18 11:16:29;;;;;;;0.87;0.73;;;16.20;94.40;;;;;;4996408;28;20181;-78
2022/03/18 11:18:57;;;;;;;0.73;0.73;;;15.80;92.70;;;;;;5014744;28;20297;-78
2022/03/18 11:21:35;;;;;;;0.10;0.10;;;15.70;91.90;;;;;;5014148;28;20188;-79
2022/03/18 11:24:03;;;;;;;0.43;0.43;;;16.70;92.00;;;;;;5014084;28;20228;-78
2022/03/18 11:26:29;;;;;;;0.77;0.77;;;15.90;87.70;;;;;;5014629;28;20205;-79
2022/03/18 11:29:09;;;;;;;1.00;0.93;;;16.50;88.60;;;;;;5014665;28;20220;-78
2022/03/18 11:31:35;;;;;;;0.13;0.13;;;17.80;78.30;;;;;;5013043;28;20707;-78
2022/03/18 11:34:19;;;;;;;0.50;0.50;;;18.10;66.90;;;;;;4996967;28;20205;-78
2022/03/18 11:36:47;;;;;;;1.33;1.13;;;18.20;63.80;;;;;;5014898;28;20194;-79
2022/03/18 11:39:20;;;;;;;6.50;0.67;;;18.60;61.80;;;;;;5015389;28;20240;-78
2022/03/18 11:41:51;;;;;;;0.10;0.10;;;19.50;58.70;;;;;;5014812;28;20187;-79
2022/03/18 11:44:43;;;;;;;2.90;1.10;;;20.90;56.80;;;;;;5015001;28;20248;-79
2022/03/18 11:47:27;;;;;;;0.43;0.43;;;20.30;57.60;;;;;;5014924;28;20213;-79
2022/03/18 11:49:52;;;;;;;0.50;0.50;;;21.80;56.80;;;;;;5015240;28;20234;-79
2022/03/18 11:52:18;;;;;;;0.30;0.30;;;22.00;56.40;;;;;;5014923;28;20658;-78
2022/03/18 11:54:50;;;;;;;0.23;0.23;;;20.90;55.20;;;;;;5014381;28;20199;-79
2022/03/18 11:57:32;;;;;;;0.30;0.30;;;22.40;53.60;;;;;;5014690;28;20670;-78
2022/03/18 12:00:00;;;;;;;0.20;0.20;;;24.40;51.30;;;;;;4996498;28;20186;-79
2022/03/18 12:02:32;;;;;;;0.30;0.30;;;23.50;49.30;;;;;;5012160;28;20205;-79
2022/03/18 12:04:58;;;;;;;0.43;0.40;;;22.90;50.00;;;;;;4994282;28;20313;-80
2022/03/18 12:07:24;;;;;;;0.40;0.40;;;21.90;51.00;;;;;;5014580;28;20235;-79
2022/03/18 12:10:15;;;;;;;0.30;0.30;;;23.00;50.20;;;;;;5014648;28;20181;-78
2022/03/18 12:12:46;;;;;;;0.90;0.83;;;22.40;49.10;;;;;;5014801;28;20182;-79
2022/03/18 12:15:19;;;;;;;0.37;0.37;;;21.40;51.70;;;;;;5015300;28;20193;-78
2022/03/18 12:17:51;;;;;;;0.30;0.30;;;23.90;46.50;;;;;;4998021;28;20689;-78
2022/03/18 12:20:29;;;;;;;1.73;0.70;;;24.60;46.20;;;;;;5015083;28;20194;-78
2022/03/18 12:22:55;;;;;;;4.33;0.93;;;25.30;44.70;;;;;;5014640;28;20174;-78
2022/03/18 12:25:22;;;;;;;2.47;1.27;;;23.90;45.10;;;;;;5014409;28;20536;-78
2022/03/18 12:27:52;;;;;;;8.57;1.07;;;24.20;45.90;;;;;;5015507;28;20185;-79
2022/03/18 12:30:28;;;;;;;0.87;0.53;;;24.00;45.40;;;;;;5024111;28;20245;-80
2022/03/18 12:32:55;;;;;;;0.77;0.77;;;25.80;44.50;;;;;;5014946;28;20791;-79
2022/03/18 12:35:30;;;;;;;0.43;0.40;;;25.30;41.90;;;;;;5014818;28;20289;-80
2022/03/18 12:38:05;;;;;;;0.30;0.30;;;23.40;43.20;;;;;;5013721;28;20188;-78
2022/03/18 12:40:31;;;;;;;0.40;0.40;;;23.70;44.30;;;;;;4997293;28;20181;-80
2022/03/18 12:42:59;;;;;;;2.93;0.73;;;23.90;45.00;;;;;;5014596;28;20193;-79
2022/03/18 12:45:29;;;;;;;0.73;0.73;;;23.10;45.00;;;;;;5014872;28;20612;-79
2022/03/18 12:48:01;;;;;;;2.05;0.65;;;21.90;47.10;;;;;;5014307;28;20475;-79
2022/03/18 12:50:33;;;;;;;1.20;0.60;;;22.90;43.80;;;;;;5013861;28;20185;-78
2022/03/18 12:52:59;;;;;;;3.23;0.53;;;23.10;42.60;;;;;;5013672;28;20174;-79
2022/03/18 12:55:25;;;;;;;0.50;0.50;;;24.10;42.30;;;;;;5014441;28;20593;-79
2022/03/18 12:57:51;;;;;;;8.47;0.83;;;24.80;41.70;;;;;;5014447;28;20184;-78
2022/03/18 13:00:17;;;;;;;0.83;0.40;;;25.40;41.80;;;;;;4996075;28;20589;-78
2022/03/18 13:02:44;;;;;;;0.20;0.20;;;24.70;39.90;;;;;;5013514;28;20198;-78
2022/03/18 13:05:15;;;;;;;1.33;0.40;;;;;;;;;;5013515;28;20553;-79
2022/03/18 13:07:41;;;;;;;0.30;0.30;;;25.70;40.00;;;;;;4994986;28;20186;-77
2022/03/18 13:10:07;;;;;;;0.30;0.30;;;26.70;39.50;;;;;;5011505;28;20269;-76
2022/03/18 13:12:35;;;;;;;0.50;0.50;;;27.00;38.40;;;;;;5010667;28;20258;-77
2022/03/18 13:15:21;;;;;;;0.30;0.30;;;24.10;39.30;;;;;;5010787;28;20213;-77